Airfield :







YOU CAN JOIN US ON...

 
LOGIN :

Register | Disclaimer

   EN    FR    IT 

 









Legend :    VFR   Marginal VFR   IFR   Intensive IFR   Very Intensive IFR
Visi :
Ceiling :
>= 8 km
>= 3000ft
5 to 8 km
1000 to 3000 ft
1500m to 5 km
500 to 1000 ft
800 to 1500m
200 to 500 ft
< 800m
< 200 ft
Symbols :   Thunderstorms  Fog  Heavy snow  Heavy precipitations  Wind > 20 kt







- Airport Elevation : 166 ft
- IATA code : YCX


CYCX - Gagetown Heliport

CURRENT METAR :
  • 230600Z AUTO 05009KT 9SM BKN037 06/M01 A3018 RMK SLP221

EXPIRED METARs :
  • 230500Z AUTO 04008KT 9SM OVC037 06/01 A3020 RMK SLP227
  • 230400Z AUTO 06008KT 030V090 9SM OVC037 06/03 A3020 RMK SLP229
  • 230345Z AUTO 05007KT 020V090 9SM OVC037 06/04 A3019

Expired Forecast.
CZQM FIR / North America



MET'MAP, your aeronautical weather chart ! - Copyright ORBIFLY December 2007 - Disclaimer

ORBIFLY MET'MAP TEAM :

Programming & Development : Alexandra Zaïnal
Concept & Development : Baudouin d'Aumeries
Co-Development & Prog : Marc-Olivier Méhu
Technical & hardware support : Manuel Goepfert

Contact : metmap@orbifly.com




SOURCES & CREDITS :

   NOAA